Time;durP1;ratioP1;P1;durP2;ratioP2;P2;SDS_P1;SDS_P2;PMS_P1;PMS_P2;Temp;Humidity;BMP_temperature;BMP_pressure;BME280_temperature;BME280_humidity;BME280_pressure;Samples;Min_cycle;Max_cycle;Signal;HPM_P1;HPM_P2
2024/01/03 00:02:24;;;;;;;0.30;0.30;;;;;;;;;;5126177;28;20404;-82
2024/01/03 00:04:50;;;;;;;0.38;0.20;;;;;;;;;;5125131;28;20396;-83
2024/01/03 00:07:17;;;;;;;0.55;0.30;;;;;;;;;;5124934;28;20380;-82
2024/01/03 00:09:43;;;;;;;0.30;0.20;;;;;;;;;;5125776;28;20445;-82
2024/01/03 00:12:10;;;;;;;0.32;0.20;;;;;;;;;;5124865;28;20428;-81
2024/01/03 00:14:36;;;;;;;0.50;0.30;;;;;;;;;;5125139;28;20385;-81
2024/01/03 00:17:04;;;;;;;0.55;0.20;;;;;;;;;;5123802;28;20379;-82
2024/01/03 00:19:30;;;;;;;0.28;0.20;;;;;;;;;;5124930;28;20389;-82
2024/01/03 00:21:56;;;;;;;0.30;0.30;;;;;;;;;;5125291;28;20498;-83
2024/01/03 00:24:23;;;;;;;0.60;0.30;;;;;;;;;;5126118;28;20383;-82
2024/01/03 00:26:48;;;;;;;0.30;0.30;;;;;;;;;;5126370;28;20376;-82
2024/01/03 00:29:34;;;;;;;0.30;0.30;;;;;;;;;;5125602;28;20383;-81
2024/01/03 00:32:03;;;;;;;0.32;0.20;;;;;;;;;;5124802;28;20384;-82
2024/01/03 00:34:32;;;;;;;0.70;0.40;;;;;;;;;;5125547;28;20404;-82
2024/01/03 00:36:58;;;;;;;0.50;0.30;;;;;;;;;;5124626;28;20408;-83
2024/01/03 00:39:25;;;;;;;0.73;0.30;;;;;;;;;;5106744;28;20389;-83
2024/01/03 00:41:51;;;;;;;0.68;0.30;;;;;;;;;;5124334;28;20380;-81
2024/01/03 00:44:20;;;;;;;0.82;0.30;;;;;;;;;;5124682;28;20387;-81
2024/01/03 00:46:46;;;;;;;0.23;0.20;;;;;;;;;;5123409;28;20453;-81
2024/01/03 00:49:13;;;;;;;0.60;0.30;;;;;;;;;;5105871;28;20391;-81
2024/01/03 00:51:39;;;;;;;0.25;0.25;;;;;;;;;;5105964;28;20379;-82
2024/01/03 00:54:05;;;;;;;0.60;0.40;;;;;;;;;;5122306;28;20884;-80
2024/01/03 00:56:31;;;;;;;0.70;0.40;;;;;;;;;;5104369;28;20791;-80
2024/01/03 00:58:57;;;;;;;0.35;0.35;;;;;;;;;;5121687;28;20384;-81
2024/01/03 01:01:23;;;;;;;0.20;0.20;;;;;;;;;;5121067;28;20699;-81
2024/01/03 01:03:50;;;;;;;0.20;0.20;;;;;;;;;;5120411;28;20381;-81
2024/01/03 01:06:15;;;;;;;0.40;0.30;;;;;;;;;;5121977;28;20422;-82
2024/01/03 01:08:42;;;;;;;0.30;0.30;;;;;;;;;;5120866;28;20924;-82
2024/01/03 01:11:07;;;;;;;0.35;0.30;;;;;;;;;;5121741;28;20365;-81
2024/01/03 01:13:33;;;;;;;0.30;0.30;;;;;;;;;;5121128;28;20376;-80
2024/01/03 01:15:59;;;;;;;0.43;0.32;;;;;;;;;;5119336;28;20384;-81
2024/01/03 01:18:25;;;;;;;0.50;0.20;;;;;;;;;;5110120;28;20739;-81
2024/01/03 01:20:51;;;;;;;0.30;0.30;;;;;;;;;;5099127;28;20392;-82
2024/01/03 01:23:17;;;;;;;0.20;0.20;;;;;;;;;;5099207;28;20406;-80
2024/01/03 01:25:43;;;;;;;0.60;0.30;;;;;;;;;;5098456;28;20468;-81
2024/01/03 01:28:09;;;;;;;0.40;0.40;;;;;;;;;;5097931;28;20370;-81
2024/01/03 01:30:35;;;;;;;0.68;0.30;;;;;;;;;;5099742;28;20378;-80
2024/01/03 01:33:01;;;;;;;0.60;0.40;;;;;;;;;;5099044;28;20920;-81
2024/01/03 01:35:27;;;;;;;0.22;0.20;;;;;;;;;;5100342;28;20386;-81
2024/01/03 01:37:53;;;;;;;0.60;0.20;;;;;;;;;;5099535;28;20390;-81
2024/01/03 01:40:21;;;;;;;0.20;0.20;;;;;;;;;;5100380;28;20431;-80
2024/01/03 01:42:47;;;;;;;0.30;0.22;;;;;;;;;;5098973;28;20472;-82
2024/01/03 01:45:13;;;;;;;0.23;0.20;;;;;;;;;;5101276;28;20444;-81
2024/01/03 01:47:40;;;;;;;0.80;0.20;;;;;;;;;;5099686;28;20469;-80
2024/01/03 01:50:07;;;;;;;0.40;0.20;;;;;;;;;;5099740;28;20404;-80
2024/01/03 01:52:33;;;;;;;0.45;0.35;;;;;;;;;;5100295;28;20427;-81
2024/01/03 01:54:59;;;;;;;0.35;0.20;;;;;;;;;;5118602;28;20388;-81
2024/01/03 01:57:25;;;;;;;0.47;0.40;;;;;;;;;;5118656;28;20384;-81
2024/01/03 01:59:51;;;;;;;0.30;0.30;;;;;;;;;;5118721;28;20850;-80
2024/01/03 02:02:17;;;;;;;0.32;0.20;;;;;;;;;;5119655;28;20420;-81
2024/01/03 02:04:44;;;;;;;0.30;0.30;;;;;;;;;;5101372;28;20430;-81
2024/01/03 02:07:10;;;;;;;1.33;0.30;;;;;;;;;;5119258;28;20380;-81
2024/01/03 02:09:36;;;;;;;0.40;0.40;;;;;;;;;;5120191;28;20384;-80
2024/01/03 02:12:02;;;;;;;0.55;0.30;;;;;;;;;;5118894;28;20372;-82
2024/01/03 02:14:28;;;;;;;0.70;0.20;;;;;;;;;;5119919;28;20898;-81
2024/01/03 02:16:54;;;;;;;1.10;0.20;;;;;;;;;;5101563;28;20388;-81
2024/01/03 02:19:20;;;;;;;0.30;0.20;;;;;;;;;;5120003;28;20368;-81
2024/01/03 02:21:46;;;;;;;0.50;0.30;;;;;;;;;;5118222;28;20408;-82
2024/01/03 02:24:12;;;;;;;0.40;0.40;;;;;;;;;;5118563;28;20895;-81
2024/01/03 02:26:38;;;;;;;0.40;0.30;;;;;;;;;;5118103;28;20407;-80
2024/01/03 02:29:04;;;;;;;0.60;0.40;;;;;;;;;;5118047;28;20485;-81
2024/01/03 02:31:30;;;;;;;0.98;0.40;;;;;;;;;;5117209;28;20871;-81
2024/01/03 02:33:57;;;;;;;0.45;0.30;;;;;;;;;;5117440;28;20373;-81
2024/01/03 02:36:23;;;;;;;1.60;0.40;;;;;;;;;;5117402;28;20463;-82
2024/01/03 02:38:51;;;;;;;0.55;0.30;;;;;;;;;;5117390;28;20376;-81
2024/01/03 02:41:17;;;;;;;0.77;0.40;;;;;;;;;;5118687;28;20389;-81
2024/01/03 02:43:43;;;;;;;0.50;0.30;;;;;;;;;;5117502;28;20394;-80
2024/01/03 02:46:09;;;;;;;0.40;0.40;;;;;;;;;;5095359;28;20402;-81
2024/01/03 02:48:39;;;;;;;1.10;0.40;;;;;;;;;;5097832;28;20450;-80
2024/01/03 02:51:05;;;;;;;1.15;0.50;;;;;;;;;;5099840;28;20378;-81
2024/01/03 02:53:31;;;;;;;0.93;0.60;;;;;;;;;;5099730;28;20937;-82
2024/01/03 02:55:58;;;;;;;1.20;0.47;;;;;;;;;;5099881;28;20404;-81
2024/01/03 02:58:24;;;;;;;0.80;0.50;;;;;;;;;;5099988;28;20524;-82
2024/01/03 03:00:50;;;;;;;0.80;0.40;;;;;;;;;;5101044;28;20382;-80
2024/01/03 03:03:16;;;;;;;0.65;0.40;;;;;;;;;;5100008;28;20743;-81
2024/01/03 03:05:42;;;;;;;0.40;0.40;;;;;;;;;;5082748;28;20461;-81
2024/01/03 03:08:08;;;;;;;0.50;0.40;;;;;;;;;;5100980;28;20409;-81
2024/01/03 03:10:34;;;;;;;1.37;0.40;;;;;;;;;;5100584;28;20464;-82
2024/01/03 03:13:00;;;;;;;0.40;0.40;;;;;;;;;;5100253;28;20457;-82
2024/01/03 03:15:26;;;;;;;0.50;0.30;;;;;;;;;;5100271;28;20423;-81
2024/01/03 03:17:52;;;;;;;0.40;0.30;;;;;;;;;;5089520;28;20440;-81
2024/01/03 03:20:18;;;;;;;0.20;0.20;;;;;;;;;;5103552;28;20410;-81
2024/01/03 03:22:44;;;;;;;0.35;0.35;;;;;;;;;;5120993;28;20838;-81
2024/01/03 03:25:09;;;;;;;0.30;0.30;;;;;;;;;;5103605;28;20412;-81
2024/01/03 03:27:35;;;;;;;0.57;0.40;;;;;;;;;;5107944;28;20391;-81
2024/01/03 03:30:02;;;;;;;0.30;0.30;;;;;;;;;;5127404;28;20509;-82
2024/01/03 03:32:28;;;;;;;0.60;0.30;;;;;;;;;;5127369;28;20455;-80
2024/01/03 03:34:54;;;;;;;1.10;0.30;;;;;;;;;;5108617;28;20389;-82
2024/01/03 03:37:20;;;;;;;0.30;0.22;;;;;;;;;;5126500;28;20454;-81
2024/01/03 03:39:46;;;;;;;0.30;0.20;;;;;;;;;;5127444;28;20404;-81
2024/01/03 03:42:12;;;;;;;0.47;0.30;;;;;;;;;;5109279;28;20731;-81
2024/01/03 03:44:40;;;;;;;0.40;0.40;;;;;;;;;;5127471;28;20471;-81
2024/01/03 03:47:06;;;;;;;0.57;0.40;;;;;;;;;;5109997;28;20377;-82
2024/01/03 03:49:32;;;;;;;0.55;0.30;;;;;;;;;;5111346;28;20410;-81
2024/01/03 03:51:58;;;;;;;1.10;0.40;;;;;;;;;;5109135;28;20441;-81
2024/01/03 03:54:24;;;;;;;1.02;0.52;;;;;;;;;;5128270;28;20376;-81
2024/01/03 03:56:50;;;;;;;1.17;0.80;;;;;;;;;;5111460;28;20369;-81
2024/01/03 03:59:16;;;;;;;0.38;0.30;;;;;;;;;;5128166;28;20394;-83
2024/01/03 04:01:48;;;;;;;0.40;0.40;;;;;;;;;;5131230;28;20377;-81
2024/01/03 04:04:14;;;;;;;0.30;0.20;;;;;;;;;;5129718;28;20391;-82
2024/01/03 04:06:43;;;;;;;0.40;0.20;;;;;;;;;;5127697;28;20404;-82
2024/01/03 04:09:12;;;;;;;0.20;0.20;;;;;;;;;;5106760;28;20722;-82
2024/01/03 04:11:41;;;;;;;0.52;0.32;;;;;;;;;;5126852;28;20380;-82
2024/01/03 04:14:08;;;;;;;0.93;0.30;;;;;;;;;;5105205;28;20817;-82
2024/01/03 04:16:34;;;;;;;0.70;0.40;;;;;;;;;;5123862;28;20386;-80
2024/01/03 04:19:00;;;;;;;0.23;0.23;;;;;;;;;;5124929;28;20380;-82
2024/01/03 04:21:27;;;;;;;0.30;0.20;;;;;;;;;;5123691;28;20408;-81
2024/01/03 04:23:53;;;;;;;0.20;0.20;;;;;;;;;;5125958;28;20456;-82
2024/01/03 04:26:19;;;;;;;0.40;0.20;;;;;;;;;;5125633;28;20503;-81
2024/01/03 04:28:44;;;;;;;0.20;0.20;;;;;;;;;;5125698;28;20455;-82
2024/01/03 04:31:10;;;;;;;0.40;0.30;;;;;;;;;;5126046;28;20376;-83
2024/01/03 04:33:36;;;;;;;0.45;0.20;;;;;;;;;;5126080;28;20376;-82
2024/01/03 04:36:02;;;;;;;0.40;0.30;;;;;;;;;;5125766;28;20733;-80
2024/01/03 04:38:28;;;;;;;0.80;0.30;;;;;;;;;;5107055;28;20373;-81
2024/01/03 04:40:54;;;;;;;0.60;0.30;;;;;;;;;;5124440;28;20383;-81
2024/01/03 04:43:20;;;;;;;0.25;0.20;;;;;;;;;;5106461;28;20384;-80
2024/01/03 04:45:47;;;;;;;0.85;0.40;;;;;;;;;;5123478;28;20404;-81
2024/01/03 04:48:13;;;;;;;0.38;0.30;;;;;;;;;;5105490;28;20384;-81
2024/01/03 04:50:39;;;;;;;0.70;0.30;;;;;;;;;;5123973;28;20372;-81
2024/01/03 04:53:05;;;;;;;0.30;0.30;;;;;;;;;;5125734;28;20387;-81
2024/01/03 04:55:31;;;;;;;1.02;0.40;;;;;;;;;;5126153;28;20404;-81
2024/01/03 04:57:58;;;;;;;1.23;0.32;;;;;;;;;;5126059;28;20435;-81
2024/01/03 05:00:24;;;;;;;0.50;0.40;;;;;;;;;;5125192;28;20407;-81
2024/01/03 05:02:50;;;;;;;0.43;0.43;;;;;;;;;;5124885;28;20414;-80
2024/01/03 05:05:15;;;;;;;0.40;0.30;;;;;;;;;;5124419;28;20416;-81
2024/01/03 05:07:41;;;;;;;0.85;0.30;;;;;;;;;;5106568;28;20373;-81
2024/01/03 05:10:11;;;;;;;0.70;0.40;;;;;;;;;;5125659;28;20380;-81
2024/01/03 05:12:37;;;;;;;0.55;0.55;;;;;;;;;;5112815;28;20391;-81
2024/01/03 05:15:04;;;;;;;1.02;0.50;;;;;;;;;;5104631;28;20386;-82
2024/01/03 05:17:30;;;;;;;1.02;0.50;;;;;;;;;;5119853;28;20400;-81
2024/01/03 05:19:57;;;;;;;0.45;0.43;;;;;;;;;;5105320;28;20393;-81
2024/01/03 05:22:23;;;;;;;0.90;0.40;;;;;;;;;;5123991;28;20422;-81
2024/01/03 05:24:49;;;;;;;1.17;0.57;;;;;;;;;;5124501;28;20491;-82
2024/01/03 05:27:15;;;;;;;0.70;0.50;;;;;;;;;;5124956;28;20388;-81
2024/01/03 05:29:41;;;;;;;0.77;0.40;;;;;;;;;;5124913;28;20372;-81
2024/01/03 05:32:07;;;;;;;1.45;0.80;;;;;;;;;;5123148;28;20392;-80
2024/01/03 05:34:33;;;;;;;1.52;0.50;;;;;;;;;;5124425;28;20368;-81
2024/01/03 05:36:59;;;;;;;1.98;0.60;;;;;;;;;;5123290;28;20384;-81
2024/01/03 05:39:25;;;;;;;1.27;0.40;;;;;;;;;;5121688;28;20380;-81
2024/01/03 05:41:51;;;;;;;1.30;0.52;;;;;;;;;;5122469;28;20428;-81
2024/01/03 05:44:17;;;;;;;3.65;1.00;;;;;;;;;;5123322;28;20459;-81
2024/01/03 05:46:43;;;;;;;2.10;0.87;;;;;;;;;;5121906;28;20519;-81
2024/01/03 05:49:10;;;;;;;3.00;1.00;;;;;;;;;;5121494;28;20394;-81
2024/01/03 05:51:36;;;;;;;5.53;1.10;;;;;;;;;;5121126;28;20372;-82
2024/01/03 05:54:02;;;;;;;3.15;0.70;;;;;;;;;;5121696;28;20392;-81
2024/01/03 05:56:28;;;;;;;2.28;1.13;;;;;;;;;;5120575;28;20455;-81
2024/01/03 05:58:54;;;;;;;3.40;1.15;;;;;;;;;;5122707;28;20423;-82
2024/01/03 06:01:20;;;;;;;4.10;1.15;;;;;;;;;;5123520;28;20834;-83
2024/01/03 06:03:47;;;;;;;4.27;1.30;;;;;;;;;;5123326;28;20449;-83
2024/01/03 06:06:14;;;;;;;2.70;1.10;;;;;;;;;;5123542;28;20400;-81
2024/01/03 06:08:40;;;;;;;3.53;1.00;;;;;;;;;;5104641;28;20380;-81
2024/01/03 06:11:09;;;;;;;4.07;1.02;;;;;;;;;;5105313;28;20738;-83
2024/01/03 06:13:35;;;;;;;4.60;1.25;;;;;;;;;;5123665;28;20381;-83
2024/01/03 06:16:01;;;;;;;2.80;1.13;;;;;;;;;;5123038;28;20391;-83
2024/01/03 06:18:27;;;;;;;6.35;1.20;;;;;;;;;;5123336;28;20388;-82
2024/01/03 06:20:53;;;;;;;2.78;0.90;;;;;;;;;;5123740;28;20433;-83
2024/01/03 06:23:19;;;;;;;1.83;0.77;;;;;;;;;;5105030;28;20409;-82
2024/01/03 06:25:45;;;;;;;2.15;0.80;;;;;;;;;;5123107;28;20468;-82
2024/01/03 06:28:14;;;;;;;3.13;0.80;;;;;;;;;;5122830;28;20430;-81
2024/01/03 06:30:40;;;;;;;2.35;0.60;;;;;;;;;;5123349;28;20373;-82
2024/01/03 06:33:06;;;;;;;2.42;0.93;;;;;;;;;;5124175;28;20388;-83
2024/01/03 06:35:32;;;;;;;1.75;0.80;;;;;;;;;;5106005;28;20380;-82
2024/01/03 06:37:58;;;;;;;2.05;0.80;;;;;;;;;;5104849;28;20517;-81
2024/01/03 06:40:24;;;;;;;2.20;0.90;;;;;;;;;;5123482;28;20380;-80
2024/01/03 06:42:50;;;;;;;4.82;0.93;;;;;;;;;;5122264;28;20419;-82
2024/01/03 06:45:16;;;;;;;3.60;0.93;;;;;;;;;;5121719;28;20412;-81
2024/01/03 06:47:42;;;;;;;1.57;0.73;;;;;;;;;;5120908;28;20380;-81
2024/01/03 06:50:09;;;;;;;3.13;0.70;;;;;;;;;;5119020;28;20372;-81
2024/01/03 06:52:35;;;;;;;2.03;0.60;;;;;;;;;;5119241;28;20368;-81
2024/01/03 06:55:02;;;;;;;1.83;0.60;;;;;;;;;;5102543;28;20381;-80
2024/01/03 06:57:28;;;;;;;3.03;0.73;;;;;;;;;;5118320;28;20381;-82
2024/01/03 06:59:54;;;;;;;3.70;0.65;;;;;;;;;;5119467;28;20380;-81
2024/01/03 07:02:20;;;;;;;2.38;0.77;;;;;;;;;;5120221;28;20377;-80
2024/01/03 07:04:46;;;;;;;4.95;0.88;;;;;;;;;;5119044;28;20380;-80
2024/01/03 07:07:15;;;;;;;2.83;0.70;;;;;;;;;;5117780;28;20440;-80
2024/01/03 07:09:41;;;;;;;4.15;0.88;;;;;;;;;;5118997;28;20385;-80
2024/01/03 07:12:07;;;;;;;2.80;1.02;;;;;;;;;;5101357;28;20391;-80
2024/01/03 07:14:33;;;;;;;4.53;1.13;;;;;;;;;;5119706;28;20395;-81
2024/01/03 07:16:59;;;;;;;4.28;1.10;;;;;;;;;;5108697;28;20431;-82
2024/01/03 07:19:25;;;;;;;4.13;1.00;;;;;;;;;;5099438;28;20386;-81
2024/01/03 07:21:51;;;;;;;3.38;1.10;;;;;;;;;;5098529;28;20902;-80
2024/01/03 07:24:17;;;;;;;2.28;0.90;;;;;;;;;;5099213;28;20386;-80
2024/01/03 07:26:43;;;;;;;4.22;0.90;;;;;;;;;;5098558;28;20405;-81
2024/01/03 07:29:09;;;;;;;2.20;1.05;;;;;;;;;;5100331;28;20504;-81
2024/01/03 07:31:36;;;;;;;1.65;0.65;;;;;;;;;;5098990;28;20378;-81
2024/01/03 07:34:02;;;;;;;2.20;0.88;;;;;;;;;;5099304;28;20404;-80
2024/01/03 07:36:27;;;;;;;2.55;1.10;;;;;;;;;;5099490;28;20385;-81
2024/01/03 07:38:57;;;;;;;2.08;0.95;;;;;;;;;;5099306;28;20374;-80
2024/01/03 07:41:23;;;;;;;3.15;1.20;;;;;;;;;;5098206;28;20401;-81
2024/01/03 07:43:49;;;;;;;2.67;1.08;;;;;;;;;;5100551;28;20370;-81
2024/01/03 07:46:16;;;;;;;2.60;1.10;;;;;;;;;;5098945;28;20899;-81
2024/01/03 07:48:42;;;;;;;3.08;0.90;;;;;;;;;;5098725;28;20381;-81
2024/01/03 07:51:08;;;;;;;2.40;1.10;;;;;;;;;;5103035;28;20482;-81
2024/01/03 07:53:34;;;;;;;2.47;1.10;;;;;;;;;;5122898;28;20384;-83
2024/01/03 07:56:00;;;;;;;4.88;0.98;;;;;;;;;;5122791;28;20380;-83
2024/01/03 07:58:26;;;;;;;2.60;0.90;;;;;;;;;;5123595;28;20869;-82
2024/01/03 08:00:52;;;;;;;2.90;0.80;;;;;;;;;;5104272;28;20385;-81
2024/01/03 08:03:18;;;;;;;2.42;0.82;;;;;;;;;;5123042;28;20392;-82
2024/01/03 08:05:44;;;;;;;2.50;0.77;;;;;;;;;;5120731;28;20474;-81
2024/01/03 08:08:10;;;;;;;3.88;1.20;;;;;;;;;;5121782;28;20372;-81
2024/01/03 08:10:36;;;;;;;2.60;0.70;;;;;;;;;;5122980;28;20365;-82
2024/01/03 08:13:02;;;;;;;1.17;0.77;;;;;;;;;;5125984;28;20424;-81
2024/01/03 08:15:28;;;;;;;2.65;0.93;;;;;;;;;;5125696;28;20441;-81
2024/01/03 08:17:54;;;;;;;4.10;0.80;;;;;;;;;;5123918;28;20838;-82
2024/01/03 08:20:20;;;;;;;1.60;0.88;;;;;;;;;;5124935;28;20372;-83
2024/01/03 08:22:46;;;;;;;1.42;0.60;;;;;;;;;;5124535;28;20404;-81
2024/01/03 08:25:13;;;;;;;3.08;1.17;;;;;;;;;;5124621;28;20403;-81
2024/01/03 08:27:39;;;;;;;3.70;1.83;;;;;;;;;;5125080;28;20444;-83
2024/01/03 08:30:06;;;;;;;5.75;3.30;;;;;;;;;;5122825;28;20368;-81
2024/01/03 08:32:32;;;;;;;4.63;3.42;;;;;;;;;;5123106;28;20748;-82
2024/01/03 08:34:58;;;;;;;3.30;2.58;;;;;;;;;;5122491;28;20453;-81
2024/01/03 08:37:24;;;;;;;3.13;1.50;;;;;;;;;;5121972;28;20459;-81
2024/01/03 08:39:50;;;;;;;1.98;0.88;;;;;;;;;;5122967;28;20372;-81
2024/01/03 08:42:16;;;;;;;2.72;0.70;;;;;;;;;;5122890;28;20384;-82
2024/01/03 08:44:42;;;;;;;2.35;0.60;;;;;;;;;;5122565;28;20376;-81
2024/01/03 08:47:08;;;;;;;1.77;0.70;;;;;;;;;;5123066;28;20909;-81
2024/01/03 08:49:34;;;;;;;2.22;0.77;;;;;;;;;;5121943;28;20848;-82
2024/01/03 08:52:01;;;;;;;3.33;0.90;;;;;;;;;;5122182;28;20382;-81
2024/01/03 08:54:27;;;;;;;2.28;0.80;;;;;;;;;;5104112;28;20400;-81
2024/01/03 08:56:53;;;;;;;3.40;0.90;;;;;;;;;;5123163;28;20477;-81
2024/01/03 08:59:19;;;;;;;2.22;0.70;;;;;;;;;;5123691;28;20893;-81
2024/01/03 09:01:45;;;;;;;1.65;0.80;;;;;;;;;;5122725;28;20455;-81
2024/01/03 09:04:11;;;;;;;2.80;0.70;;;;;;;;;;5123365;28;20419;-81
2024/01/03 09:06:38;;;;;;;3.10;0.98;;;;;;;;;;5121817;28;20411;-81
2024/01/03 09:09:04;;;;;;;2.05;0.70;;;;;;;;;;5121768;28;20368;-81
2024/01/03 09:11:30;;;;;;;1.17;0.50;;;;;;;;;;5124277;28;20463;-83
2024/01/03 09:13:57;;;;;;;3.05;0.98;;;;;;;;;;5124372;28;20376;-82
2024/01/03 09:16:23;;;;;;;1.58;0.70;;;;;;;;;;5104450;28;20388;-81
2024/01/03 09:18:49;;;;;;;1.98;0.60;;;;;;;;;;5103204;28;20449;-82
2024/01/03 09:21:16;;;;;;;1.85;0.80;;;;;;;;;;5102492;28;20374;-81
2024/01/03 09:23:42;;;;;;;1.88;0.70;;;;;;;;;;5100708;28;20498;-82
2024/01/03 09:26:10;;;;;;;3.28;0.80;;;;;;;;;;5100367;28;20398;-81
2024/01/03 09:28:39;;;;;;;3.20;0.90;;;;;;;;;;5082859;28;20374;-81
2024/01/03 09:31:06;;;;;;;1.67;1.02;;;;;;;;;;5098474;28;21093;-81
2024/01/03 09:33:32;;;;;;;2.40;1.30;;;;;;;;;;5098608;28;20450;-81
2024/01/03 09:35:58;;;;;;;1.05;0.70;;;;;;;;;;5099010;28;20381;-81
2024/01/03 09:38:24;;;;;;;1.40;0.70;;;;;;;;;;5098216;28;20378;-81
2024/01/03 09:40:50;;;;;;;1.30;0.60;;;;;;;;;;5098217;28;20386;-82
2024/01/03 09:43:16;;;;;;;1.48;0.80;;;;;;;;;;5078626;28;20436;-81
2024/01/03 09:45:43;;;;;;;2.13;0.68;;;;;;;;;;5096430;28;20421;-82
2024/01/03 09:48:12;;;;;;;2.20;0.80;;;;;;;;;;5095597;28;20377;-82
2024/01/03 09:50:38;;;;;;;1.73;0.77;;;;;;;;;;5094228;28;20370;-81
2024/01/03 09:53:08;;;;;;;2.10;0.70;;;;;;;;;;5094618;28;20423;-82
2024/01/03 09:55:35;;;;;;;1.50;0.70;;;;;;;;;;5094963;28;20378;-81
2024/01/03 09:58:01;;;;;;;1.87;0.70;;;;;;;;;;5093991;28;20996;-81
2024/01/03 10:00:31;;;;;;;2.25;0.68;;;;;;;;;;5094571;28;20859;-81
2024/01/03 10:03:00;;;;;;;2.58;0.70;;;;;;;;;;5111084;28;20376;-82
2024/01/03 10:05:26;;;;;;;2.65;0.88;;;;;;;;;;5098244;28;20400;-82
2024/01/03 10:07:52;;;;;;;1.65;0.70;;;;;;;;;;5115972;28;20884;-81
2024/01/03 10:10:30;;;;;;;1.17;0.80;;;;;;;;;;5117756;28;20372;-82
2024/01/03 10:12:57;;;;;;;2.30;0.85;;;;;;;;;;5116751;28;20372;-82
2024/01/03 10:15:23;;;;;;;1.23;0.50;;;;;;;;;;5116804;28;20373;-82
2024/01/03 10:17:49;;;;;;;2.95;0.60;;;;;;;;;;5117386;28;20475;-81
2024/01/03 10:20:25;;;;;;;2.30;0.98;;;;;;;;;;5117459;28;20400;-81
2024/01/03 10:23:10;;;;;;;1.50;0.60;;;;;;;;;;5116373;28;20427;-81
2024/01/03 10:25:36;;;;;;;2.47;0.65;;;;;;;;;;5117158;28;20408;-82
2024/01/03 10:28:03;;;;;;;1.30;0.60;;;;;;;;;;5116362;28;20383;-82
2024/01/03 10:30:30;;;;;;;1.17;0.63;;;;;;;;;;5117297;28;20437;-82
2024/01/03 10:33:05;;;;;;;2.40;0.68;;;;;;;;;;5117049;28;20927;-82
2024/01/03 10:35:32;;;;;;;1.73;0.50;;;;;;;;;;5116872;28;20386;-82
2024/01/03 10:38:02;;;;;;;1.40;0.50;;;;;;;;;;5117254;28;20446;-82
2024/01/03 10:40:29;;;;;;;1.60;0.47;;;;;;;;;;5116313;28;20376;-81
2024/01/03 10:42:55;;;;;;;1.95;0.60;;;;;;;;;;5115544;28;20379;-81
2024/01/03 10:45:21;;;;;;;2.30;0.63;;;;;;;;;;5120505;28;20400;-82
2024/01/03 10:47:48;;;;;;;1.77;0.55;;;;;;;;;;5119329;28;20376;-82
2024/01/03 10:50:14;;;;;;;1.23;0.50;;;;;;;;;;5120069;28;20435;-83
2024/01/03 10:52:42;;;;;;;1.75;0.40;;;;;;;;;;5120421;28;20467;-82
2024/01/03 10:55:18;;;;;;;3.10;0.60;;;;;;;;;;5120915;28;20380;-83
2024/01/03 10:57:47;;;;;;;2.47;0.60;;;;;;;;;;5119990;28;20935;-81
2024/01/03 11:00:33;;;;;;;2.35;0.57;;;;;;;;;;5120230;28;20391;-81
2024/01/03 11:03:06;;;;;;;2.28;0.70;;;;;;;;;;5120565;28;20392;-82
2024/01/03 11:05:41;;;;;;;2.28;0.80;;;;;;;;;;5120641;28;20412;-82
2024/01/03 11:08:11;;;;;;;1.50;0.60;;;;;;;;;;5120157;28;20464;-83
2024/01/03 11:10:51;;;;;;;2.03;0.50;;;;;;;;;;5118601;28;20384;-83
2024/01/03 11:13:39;;;;;;;1.58;0.73;;;;;;;;;;5101341;28;20414;-82
2024/01/03 11:16:05;;;;;;;1.55;0.60;;;;;;;;;;5099714;28;20446;-83
2024/01/03 11:18:41;;;;;;;3.10;0.88;;;;;;;;;;5101698;28;20374;-83
2024/01/03 11:21:27;;;;;;;2.80;0.90;;;;;;;;;;5102610;28;20377;-82
2024/01/03 11:23:54;;;;;;;1.20;0.60;;;;;;;;;;5102909;28;20401;-82
2024/01/03 11:26:20;;;;;;;1.70;0.70;;;;;;;;;;5102956;28;20441;-83
2024/01/03 11:28:49;;;;;;;1.30;0.63;;;;;;;;;;5084201;28;20378;-83
2024/01/03 11:31:35;;;;;;;1.52;0.70;;;;;;;;;;5103057;28;21004;-84
2024/01/03 11:34:01;;;;;;;1.50;0.70;;;;;;;;;;5103331;28;20366;-83
2024/01/03 11:36:47;;;;;;;2.07;0.63;;;;;;;;;;5103730;28;20389;-82
2024/01/03 11:39:32;;;;;;;1.53;0.50;;;;;;;;;;5103320;28;20386;-82
2024/01/03 11:41:58;;;;;;;1.75;0.52;;;;;;;;;;5084756;28;20382;-82
2024/01/03 11:44:24;;;;;;;2.38;0.50;;;;;;;;;;5084885;28;20389;-83
2024/01/03 11:46:57;;;;;;;1.88;0.80;;;;;;;;;;5104194;28;20771;-83
2024/01/03 11:49:23;;;;;;;2.42;1.10;;;;;;;;;;5106740;28;20860;-83
2024/01/03 11:51:49;;;;;;;2.90;0.90;;;;;;;;;;5105643;28;20417;-83
2024/01/03 11:54:15;;;;;;;2.20;0.50;;;;;;;;;;5106187;28;20382;-83
2024/01/03 11:56:41;;;;;;;3.80;0.65;;;;;;;;;;5091773;28;20392;-82
2024/01/03 11:59:07;;;;;;;2.28;0.60;;;;;;;;;;5126486;28;20422;-82
2024/01/03 12:01:33;;;;;;;1.55;0.60;;;;;;;;;;5125615;28;20384;-82
2024/01/03 12:04:12;;;;;;;4.15;0.55;;;;;;;;;;5125867;28;20434;-81
2024/01/03 12:06:39;;;;;;;3.60;0.40;;;;;;;;;;5124184;28;20946;-83
2024/01/03 12:09:06;;;;;;;2.33;0.63;;;;;;;;;;5105137;28;20460;-82
2024/01/03 12:11:32;;;;;;;1.80;0.50;;;;;;;;;;5125084;28;20368;-83
2024/01/03 12:13:58;;;;;;;2.10;0.73;;;;;;;;;;5125182;28;20379;-83
2024/01/03 12:16:24;;;;;;;2.00;0.60;;;;;;;;;;5106686;28;20389;-83
2024/01/03 12:18:51;;;;;;;2.25;0.50;;;;;;;;;;5124408;28;20718;-82
2024/01/03 12:21:17;;;;;;;2.75;0.85;;;;;;;;;;5124625;28;20402;-82
2024/01/03 12:24:02;;;;;;;1.58;0.60;;;;;;;;;;5123652;28;20396;-82
2024/01/03 12:26:29;;;;;;;1.27;0.40;;;;;;;;;;5125240;28;20415;-82
2024/01/03 12:29:04;;;;;;;2.03;0.63;;;;;;;;;;5126220;28;20388;-83
2024/01/03 12:31:30;;;;;;;2.80;0.73;;;;;;;;;;5126019;28;20850;-83
2024/01/03 12:34:06;;;;;;;1.60;0.50;;;;;;;;;;5104032;28;20760;-83
2024/01/03 12:36:32;;;;;;;2.28;0.60;;;;;;;;;;5101198;28;21236;-83
2024/01/03 12:38:58;;;;;;;1.77;0.80;;;;;;;;;;5120826;28;20372;-83
2024/01/03 12:41:24;;;;;;;1.42;0.60;;;;;;;;;;5121408;28;20381;-83
2024/01/03 12:43:50;;;;;;;2.90;1.13;;;;;;;;;;5121834;28;20383;-83
2024/01/03 12:46:16;;;;;;;2.75;1.05;;;;;;;;;;5121536;28;20404;-82
2024/01/03 12:48:44;;;;;;;5.85;3.08;;;;;;;;;;5121887;28;20402;-83
2024/01/03 12:51:10;;;;;;;2.00;0.90;;;;;;;;;;5122807;28;20710;-83
2024/01/03 12:53:37;;;;;;;2.63;0.80;;;;;;;;;;5123658;28;20411;-83
2024/01/03 12:56:03;;;;;;;1.98;0.88;;;;;;;;;;5124130;28;20391;-82
2024/01/03 12:58:29;;;;;;;1.73;1.20;;;;;;;;;;5122709;28;20395;-83
2024/01/03 13:00:56;;;;;;;2.72;0.70;;;;;;;;;;5123121;28;20376;-83
2024/01/03 13:03:22;;;;;;;1.60;0.70;;;;;;;;;;5122459;28;20866;-83
2024/01/03 13:05:48;;;;;;;2.10;0.82;;;;;;;;;;5123439;28;20433;-83
2024/01/03 13:08:14;;;;;;;1.23;0.60;;;;;;;;;;5122883;28;20372;-82
2024/01/03 13:10:40;;;;;;;2.50;0.55;;;;;;;;;;5104920;28;20384;-83
2024/01/03 13:13:06;;;;;;;2.97;0.77;;;;;;;;;;5124237;28;20372;-82
2024/01/03 13:15:32;;;;;;;3.88;0.90;;;;;;;;;;5117419;28;20801;-83
2024/01/03 13:18:00;;;;;;;1.85;0.63;;;;;;;;;;5101170;28;20382;-82
2024/01/03 13:20:26;;;;;;;0.87;0.63;;;;;;;;;;5101996;28;20374;-82
2024/01/03 13:22:52;;;;;;;2.08;1.00;;;;;;;;;;5102846;28;20406;-83
2024/01/03 13:25:19;;;;;;;2.67;0.80;;;;;;;;;;5084434;28;20418;-83
2024/01/03 13:27:45;;;;;;;3.92;0.70;;;;;;;;;;5101514;28;20378;-83
2024/01/03 13:30:11;;;;;;;2.73;0.80;;;;;;;;;;5101830;28;20425;-82
2024/01/03 13:32:41;;;;;;;2.67;0.77;;;;;;;;;;5101894;28;20416;-82
2024/01/03 13:35:07;;;;;;;4.90;0.80;;;;;;;;;;5101471;28;20390;-82
2024/01/03 13:37:33;;;;;;;2.50;1.20;;;;;;;;;;5101193;28;20390;-83
2024/01/03 13:39:59;;;;;;;2.88;1.25;;;;;;;;;;5101713;28;20378;-82
2024/01/03 13:42:25;;;;;;;3.03;1.00;;;;;;;;;;5101862;28;20383;-83
2024/01/03 13:44:51;;;;;;;2.93;1.00;;;;;;;;;;5100831;28;20519;-82
2024/01/03 13:47:20;;;;;;;3.28;1.05;;;;;;;;;;5100641;28;20386;-82
2024/01/03 13:49:46;;;;;;;2.35;1.15;;;;;;;;;;5101289;28;20878;-82
2024/01/03 13:52:14;;;;;;;2.73;1.30;;;;;;;;;;5120164;28;20381;-82
2024/01/03 13:54:40;;;;;;;2.37;1.07;;;;;;;;;;5120728;28;20470;-82
2024/01/03 13:57:06;;;;;;;2.05;0.85;;;;;;;;;;5120464;28;20380;-82
2024/01/03 13:59:32;;;;;;;2.40;1.20;;;;;;;;;;5122353;28;20373;-83
2024/01/03 14:01:58;;;;;;;1.67;0.80;;;;;;;;;;5120408;28;20372;-82
2024/01/03 14:04:24;;;;;;;1.50;0.90;;;;;;;;;;5120107;28;20387;-82
2024/01/03 14:06:51;;;;;;;2.20;1.00;;;;;;;;;;5100549;28;20407;-82
2024/01/03 14:09:17;;;;;;;1.75;0.50;;;;;;;;;;5099304;28;20416;-82
2024/01/03 14:11:43;;;;;;;1.50;0.70;;;;;;;;;;5100521;28;20744;-82
2024/01/03 14:14:09;;;;;;;1.77;0.80;;;;;;;;;;5100219;28;20375;-82
2024/01/03 14:16:35;;;;;;;1.75;0.70;;;;;;;;;;5099332;28;20400;-82
2024/01/03 14:19:01;;;;;;;1.80;0.70;;;;;;;;;;5099383;28;20398;-83
2024/01/03 14:21:27;;;;;;;1.42;0.80;;;;;;;;;;5099891;28;20381;-82
2024/01/03 14:23:54;;;;;;;2.75;0.80;;;;;;;;;;5099762;28;20373;-83
2024/01/03 14:26:21;;;;;;;1.15;0.50;;;;;;;;;;5102298;28;20438;-83
2024/01/03 14:28:47;;;;;;;1.33;0.70;;;;;;;;;;5100781;28;20386;-82
2024/01/03 14:31:13;;;;;;;1.80;0.80;;;;;;;;;;5099963;28;20374;-83
2024/01/03 14:33:39;;;;;;;2.20;0.80;;;;;;;;;;5099883;28;20401;-82
2024/01/03 14:36:05;;;;;;;0.90;0.55;;;;;;;;;;5099967;28;20381;-82
2024/01/03 14:38:32;;;;;;;1.70;0.60;;;;;;;;;;5099946;28;20471;-82
2024/01/03 14:40:58;;;;;;;1.37;0.70;;;;;;;;;;5100143;28;20382;-83
2024/01/03 14:43:31;;;;;;;1.25;0.55;;;;;;;;;;5100787;28;20778;-82